Time;durP1;ratioP1;P1;durP2;ratioP2;P2;SDS_P1;SDS_P2;PMS_P1;PMS_P2;Temp;Humidity;BMP_temperature;BMP_pressure;BME280_temperature;BME280_humidity;BME280_pressure;Samples;Min_cycle;Max_cycle;Signal;HPM_P1;HPM_P2
2022/12/26 00:01:42;;;;;;;126.07;28.48;;;9.20;99.90;;;;;;5114450;28;20035;-51
2022/12/26 00:04:08;;;;;;;116.18;27.75;;;8.90;99.90;;;;;;5114364;27;20383;-51
2022/12/26 00:06:34;;;;;;;125.68;28.80;;;9.20;99.90;;;;;;5114382;28;20152;-49
2022/12/26 00:09:01;;;;;;;103.35;27.83;;;8.80;99.90;;;;;;5114053;28;20035;-50
2022/12/26 00:11:28;;;;;;;111.88;29.65;;;9.00;99.90;;;;;;5113886;28;20118;-50
2022/12/26 00:14:03;;;;;;;107.47;27.85;;;9.20;99.90;;;;;;5113808;28;20478;-49
2022/12/26 00:16:29;;;;;;;103.47;27.40;;;9.20;99.90;;;;;;5113793;28;20067;-49
2022/12/26 00:18:55;;;;;;;110.72;28.10;;;8.50;99.90;;;;;;5123017;27;20081;-50
2022/12/26 00:21:22;;;;;;;81.55;25.10;;;8.50;99.90;;;;;;5121785;27;20074;-46
2022/12/26 00:23:48;;;;;;;125.03;28.58;;;9.20;99.90;;;;;;5115087;27;20071;-49
2022/12/26 00:26:20;;;;;;;124.30;28.73;;;8.50;99.90;;;;;;5120911;27;20490;-52
2022/12/26 00:28:46;;;;;;;126.40;29.05;;;8.60;99.90;;;;;;5113193;28;20063;-49
2022/12/26 00:31:17;;;;;;;121.28;28.90;;;9.00;99.90;;;;;;5121639;27;20043;-50
2022/12/26 00:33:43;;;;;;;114.47;28.95;;;8.60;99.90;;;;;;5117034;27;20386;-51
2022/12/26 00:36:12;;;;;;;124.82;27.92;;;9.20;99.90;;;;;;5122805;27;20028;-50
2022/12/26 00:38:39;;;;;;;144.30;31.95;;;9.30;99.90;;;;;;5113643;28;20173;-50
2022/12/26 00:41:05;;;;;;;133.65;30.10;;;9.00;99.90;;;;;;5113663;28;20042;-50
2022/12/26 00:43:31;;;;;;;125.38;30.00;;;8.70;99.90;;;;;;5113030;27;20040;-50
2022/12/26 00:45:58;;;;;;;128.48;30.85;;;8.60;99.90;;;;;;5113718;28;20058;-53
2022/12/26 00:48:24;;;;;;;136.50;31.33;;;9.20;99.90;;;;;;5112234;28;20128;-52
2022/12/26 00:50:50;;;;;;;150.60;30.42;;;9.10;99.90;;;;;;5118888;27;20089;-49
2022/12/26 00:53:16;;;;;;;153.15;32.90;;;8.90;99.90;;;;;;5113527;28;20119;-51
2022/12/26 00:55:41;;;;;;;112.85;29.17;;;8.90;99.90;;;;;;5113451;28;20381;-52
2022/12/26 00:58:07;;;;;;;146.35;32.88;;;8.90;99.90;;;;;;5111827;28;20043;-50
2022/12/26 01:00:33;;;;;;;122.32;31.75;;;8.90;99.90;;;;;;5119144;27;20039;-49
2022/12/26 01:02:59;;;;;;;129.05;33.05;;;9.30;99.90;;;;;;5113134;28;20045;-48
2022/12/26 01:05:25;;;;;;;134.25;34.22;;;9.00;99.90;;;;;;5119034;27;20031;-50
2022/12/26 01:07:51;;;;;;;121.82;33.60;;;9.40;99.90;;;;;;5113033;28;20036;-48
2022/12/26 01:10:17;;;;;;;114.07;33.33;;;9.40;99.90;;;;;;5113097;28;20042;-50
2022/12/26 01:12:42;;;;;;;110.07;33.90;;;9.00;99.90;;;;;;5112403;28;20520;-51
2022/12/26 01:15:08;;;;;;;89.30;31.27;;;9.40;99.90;;;;;;5113151;28;20032;-47
2022/12/26 01:17:34;;;;;;;92.47;30.95;;;9.30;99.90;;;;;;5115119;27;20035;-51
2022/12/26 01:20:01;;;;;;;90.80;29.73;;;8.80;99.90;;;;;;5123906;27;20079;-50
2022/12/26 01:22:27;;;;;;;77.28;28.40;;;9.50;99.90;;;;;;5113684;27;20542;-49
2022/12/26 01:24:57;;;;;;;87.32;28.98;;;9.50;99.90;;;;;;5110159;28;20046;-49
2022/12/26 01:27:24;;;;;;;77.43;28.45;;;9.50;99.90;;;;;;5112407;28;20039;-52
2022/12/26 01:29:51;;;;;;;82.75;30.40;;;9.50;99.90;;;;;;5112187;28;20109;-48
2022/12/26 01:32:17;;;;;;;90.93;29.92;;;9.20;99.90;;;;;;5112550;28;20449;-51
2022/12/26 01:34:43;;;;;;;106.45;30.73;;;9.50;99.90;;;;;;5123299;27;20111;-48
2022/12/26 01:37:12;;;;;;;82.53;29.27;;;8.90;99.90;;;;;;5112761;27;20071;-49
2022/12/26 01:39:38;;;;;;;88.10;32.42;;;9.50;99.90;;;;;;5112259;28;20035;-53
2022/12/26 01:42:15;;;;;;;105.95;32.97;;;8.80;99.90;;;;;;5112470;28;20040;-51
2022/12/26 01:45:02;;;;;;;79.82;30.48;;;8.90;99.90;;;;;;5114280;27;20100;-53
2022/12/26 01:47:50;;;;;;;82.47;30.30;;;9.40;99.90;;;;;;5116520;27;20046;-49
2022/12/26 01:50:51;;;;;;;83.70;31.17;;;9.20;99.90;;;;;;5112175;28;20071;-52
2022/12/26 01:53:23;;;;;;;84.00;30.48;;;9.20;99.90;;;;;;5115566;27;20394;-50
2022/12/26 01:56:04;;;;;;;84.22;29.85;;;9.30;99.90;;;;;;5112376;28;20032;-50
2022/12/26 01:58:34;;;;;;;102.25;32.67;;;8.90;99.90;;;;;;5111072;28;20053;-49
2022/12/26 02:01:03;;;;;;;104.95;35.28;;;8.90;99.90;;;;;;5112139;28;20050;-52
2022/12/26 02:06:15;;;;;;;106.72;34.33;;;9.10;99.90;;;;;;5113121;27;20529;-50
2022/12/26 02:08:41;;;;;;;89.30;32.03;;;9.60;99.90;;;;;;5128600;27;20062;-51
2022/12/26 02:11:23;;;;;;;105.90;35.72;;;8.90;99.90;;;;;;5125090;27;20032;-53
2022/12/26 02:13:49;;;;;;;110.13;37.00;;;9.00;99.90;;;;;;5111202;28;20038;-49
2022/12/26 02:16:17;;;;;;;116.03;36.38;;;9.00;99.90;;;;;;5111739;28;20035;-52
2022/12/26 02:18:43;;;;;;;112.43;36.20;;;9.70;99.90;;;;;;5111552;28;20167;-50
2022/12/26 02:21:30;;;;;;;109.55;35.28;;;8.90;99.90;;;;;;5120805;27;20501;-49
2022/12/26 02:24:02;;;;;;;113.13;35.53;;;9.70;99.90;;;;;;5111350;28;20036;-50
2022/12/26 02:26:33;;;;;;;125.55;39.42;;;9.30;99.90;;;;;;5111707;28;20096;-52
2022/12/26 02:29:23;;;;;;;113.28;37.58;;;9.10;99.90;;;;;;5121513;27;20088;-49
2022/12/26 02:32:08;;;;;;;101.65;36.00;;;9.00;99.90;;;;;;5121793;27;20383;-48
2022/12/26 02:34:57;;;;;;;124.10;38.88;;;9.70;99.90;;;;;;5111365;28;20104;-51
2022/12/26 02:37:47;;;;;;;113.30;37.70;;;9.10;99.90;;;;;;5111059;28;20036;-49
2022/12/26 02:40:28;;;;;;;118.72;38.72;;;9.70;99.90;;;;;;5115136;27;20055;-48
2022/12/26 02:43:36;;;;;;;120.70;40.70;;;9.10;99.90;;;;;;5117443;27;20067;-49
2022/12/26 02:49:02;;;;;;;129.10;40.13;;;9.70;99.90;;;;;;5121288;27;20482;-50
2022/12/26 03:15:06;;;;;;;99.90;37.65;;;9.00;99.90;;;;;;5129804;27;20126;-50
2022/12/26 03:17:43;;;;;;;98.70;37.53;;;9.60;99.90;;;;;;5122039;27;20453;-50
2022/12/26 03:20:41;;;;;;;107.40;38.30;;;9.50;99.90;;;;;;5122211;27;20478;-51
2022/12/26 03:23:14;;;;;;;106.60;37.67;;;8.50;99.90;;;;;;5079607;28;20083;-50
2022/12/26 03:28:31;;;;;;;91.57;35.72;;;9.20;99.90;;;;;;5114701;28;20147;-50
2022/12/26 03:31:00;;;;;;;90.93;35.25;;;9.50;99.90;;;;;;5114627;27;20130;-52
2022/12/26 03:36:52;;;;;;;88.57;35.40;;;8.90;99.90;;;;;;5115018;28;20052;-49
2022/12/26 03:39:17;;;;;;;85.75;34.28;;;9.00;99.90;;;;;;5114617;28;20486;-52
2022/12/26 04:20:26;;;;;;;67.22;30.92;;;9.00;99.90;;;;;;5112499;28;20039;-51
2022/12/26 04:45:50;;;;;;;66.13;31.77;;;9.10;99.90;;;;;;5113643;28;20070;-48
2022/12/26 04:51:00;;;;;;;70.25;33.42;;;9.30;99.90;;;;;;5113487;28;20146;-50
2022/12/26 04:53:26;;;;;;;66.57;31.80;;;8.80;99.90;;;;;;5113217;28;20118;-49
2022/12/26 04:55:51;;;;;;;69.70;33.08;;;9.10;99.90;;;;;;5116853;27;20038;-50
2022/12/26 04:58:17;;;;;;;65.00;32.78;;;8.60;99.90;;;;;;5114209;27;20046;-51
2022/12/26 05:00:43;;;;;;;62.40;31.77;;;9.10;99.90;;;;;;5123222;27;20047;-49
2022/12/26 05:11:30;;;;;;;64.40;31.15;;;8.70;99.90;;;;;;5112095;27;20413;-52
2022/12/26 05:13:56;;;;;;;62.00;31.13;;;9.30;99.90;;;;;;5116389;27;20038;-52
2022/12/26 05:30:24;;;;;;;58.25;30.58;;;8.70;99.90;;;;;;5112221;28;20044;-48
2022/12/26 05:35:34;;;;;;;52.22;29.17;;;8.70;99.90;;;;;;5111899;28;20065;-52
2022/12/26 05:38:01;;;;;;;55.45;29.67;;;9.00;99.90;;;;;;5112709;27;20371;-49
2022/12/26 05:40:27;;;;;;;52.70;28.95;;;9.10;99.90;;;;;;5125722;27;20048;-50
2022/12/26 05:42:52;;;;;;;48.67;28.63;;;9.20;99.90;;;;;;5115504;27;20371;-50
2022/12/26 05:45:18;;;;;;;46.55;27.77;;;8.70;99.90;;;;;;5111881;28;20054;-50
2022/12/26 05:47:44;;;;;;;45.45;26.35;;;9.40;99.90;;;;;;5112098;28;20036;-50
2022/12/26 05:50:09;;;;;;;44.22;26.60;;;8.80;99.90;;;;;;5127132;27;20118;-49
2022/12/26 05:52:35;;;;;;;43.15;25.90;;;9.10;99.90;;;;;;5111015;28;20061;-51
2022/12/26 05:55:01;;;;;;;45.50;27.85;;;8.80;99.90;;;;;;5112430;28;20031;-54
2022/12/26 05:57:26;;;;;;;45.58;26.75;;;9.20;99.90;;;;;;5112182;28;20039;-49
2022/12/26 05:59:52;;;;;;;42.17;26.33;;;9.40;99.90;;;;;;5111497;27;20039;-48
2022/12/26 06:02:18;;;;;;;41.85;25.33;;;9.50;99.90;;;;;;5112074;28;20075;-47
2022/12/26 06:04:44;;;;;;;42.15;25.50;;;8.90;99.90;;;;;;5112012;28;20050;-48
2022/12/26 06:07:09;;;;;;;41.72;24.60;;;8.90;99.90;;;;;;5113226;27;20375;-49
2022/12/26 06:09:35;;;;;;;38.60;23.45;;;9.00;99.90;;;;;;5111887;28;20055;-52
2022/12/26 06:12:01;;;;;;;39.88;24.25;;;9.50;99.90;;;;;;5116949;27;20500;-51
2022/12/26 06:14:26;;;;;;;38.42;23.92;;;9.30;99.90;;;;;;5113725;27;20081;-53
2022/12/26 06:16:52;;;;;;;37.08;23.42;;;8.90;99.90;;;;;;5118592;27;20478;-51
2022/12/26 06:19:18;;;;;;;34.85;22.58;;;9.20;99.90;;;;;;5111596;28;20039;-47
2022/12/26 06:21:43;;;;;;;35.50;23.58;;;9.20;99.90;;;;;;5116239;27;20034;-53
2022/12/26 06:24:09;;;;;;;37.67;23.63;;;9.50;99.90;;;;;;5124908;27;20474;-50
2022/12/26 06:26:36;;;;;;;38.50;22.33;;;9.40;99.90;;;;;;5115934;27;20035;-48
2022/12/26 06:29:02;;;;;;;33.30;22.20;;;8.90;99.90;;;;;;5122808;27;20068;-48
2022/12/26 06:31:28;;;;;;;34.97;21.02;;;8.90;99.90;;;;;;5111178;28;20122;-49
2022/12/26 06:33:57;;;;;;;32.75;20.55;;;9.40;99.90;;;;;;5114348;27;20043;-47
2022/12/26 06:36:24;;;;;;;30.95;19.88;;;8.90;99.90;;;;;;5111594;28;20031;-49
2022/12/26 06:38:50;;;;;;;30.45;19.92;;;8.80;99.90;;;;;;5111649;28;20068;-50
2022/12/26 06:41:19;;;;;;;30.80;20.05;;;9.30;99.90;;;;;;5118643;27;20483;-48
2022/12/26 06:43:45;;;;;;;32.67;18.65;;;9.10;99.90;;;;;;5111093;28;20122;-52
2022/12/26 06:46:14;;;;;;;32.10;19.48;;;9.30;99.90;;;;;;5110665;28;20035;-50
2022/12/26 06:48:40;;;;;;;33.22;18.92;;;8.70;99.90;;;;;;5111005;28;20042;-49
2022/12/26 06:51:12;;;;;;;27.02;17.38;;;8.70;99.90;;;;;;5113076;28;20035;-49
2022/12/26 06:53:38;;;;;;;32.10;20.15;;;8.60;99.90;;;;;;5110393;28;20039;-53
2022/12/26 06:56:10;;;;;;;28.10;19.38;;;8.80;99.90;;;;;;5111300;28;20536;-50
2022/12/26 06:58:36;;;;;;;28.55;19.13;;;8.50;99.90;;;;;;5111449;28;20036;-49
2022/12/26 07:01:07;;;;;;;29.80;19.63;;;8.50;99.90;;;;;;5111052;28;20440;-49
2022/12/26 07:03:33;;;;;;;37.05;21.48;;;9.00;99.90;;;;;;5110869;28;20036;-50
2022/12/26 07:06:27;;;;;;;32.97;21.27;;;8.50;99.90;;;;;;5111300;28;20046;-53
2022/12/26 07:08:56;;;;;;;32.55;20.48;;;9.10;99.90;;;;;;5112658;28;20074;-48
2022/12/26 07:11:24;;;;;;;30.52;20.15;;;8.50;99.90;;;;;;5111339;28;20047;-51
2022/12/26 07:13:50;;;;;;;30.63;20.55;;;8.40;99.90;;;;;;5110713;28;20486;-50
2022/12/26 07:16:16;;;;;;;33.15;21.42;;;8.60;99.90;;;;;;5110833;28;20031;-47
2022/12/26 07:18:41;;;;;;;29.80;20.98;;;9.00;99.90;;;;;;5110978;28;20537;-49
2022/12/26 07:21:09;;;;;;;34.92;21.45;;;8.50;99.90;;;;;;5119041;28;20039;-49
2022/12/26 07:23:35;;;;;;;32.17;21.05;;;8.60;99.90;;;;;;5110971;28;20031;-48
2022/12/26 07:26:00;;;;;;;34.45;21.52;;;8.50;99.90;;;;;;5111060;28;20073;-53
2022/12/26 07:28:27;;;;;;;37.33;21.63;;;8.50;99.90;;;;;;5110953;28;20051;-49
2022/12/26 07:30:52;;;;;;;33.05;21.60;;;8.70;99.90;;;;;;5110583;28;20116;-52
2022/12/26 07:33:18;;;;;;;34.10;21.45;;;8.50;99.90;;;;;;5121979;28;20115;-52
2022/12/26 07:35:44;;;;;;;33.58;20.38;;;8.50;99.90;;;;;;5117978;28;20039;-49
2022/12/26 07:38:11;;;;;;;31.90;20.13;;;8.70;99.90;;;;;;5112214;28;20047;-50
2022/12/26 07:40:37;;;;;;;31.75;19.42;;;8.90;99.90;;;;;;5110930;28;20463;-52
2022/12/26 07:43:03;;;;;;;32.00;19.85;;;8.60;99.90;;;;;;5118386;28;20063;-50
2022/12/26 07:45:29;;;;;;;30.30;19.27;;;8.80;99.90;;;;;;5110234;28;20047;-52
2022/12/26 07:47:56;;;;;;;28.77;18.48;;;8.40;99.90;;;;;;5110775;28;20028;-53
2022/12/26 07:50:23;;;;;;;29.20;18.58;;;8.60;99.90;;;;;;5110757;28;20514;-51
2022/12/26 07:52:49;;;;;;;27.40;17.38;;;8.70;99.90;;;;;;5110786;28;20588;-52
2022/12/26 07:55:15;;;;;;;29.33;17.92;;;8.90;99.90;;;;;;5110858;28;20114;-50
2022/12/26 07:57:41;;;;;;;26.73;16.90;;;9.00;99.90;;;;;;5111632;28;20490;-53
2022/12/26 08:00:08;;;;;;;26.40;17.02;;;8.50;99.90;;;;;;5114540;28;20040;-52
2022/12/26 08:02:33;;;;;;;23.40;15.60;;;9.00;99.90;;;;;;5113042;28;20058;-51
2022/12/26 08:04:59;;;;;;;22.52;14.95;;;9.00;99.90;;;;;;5112997;28;20047;-53
2022/12/26 08:07:24;;;;;;;24.17;15.65;;;8.60;99.90;;;;;;5115820;27;20075;-50
2022/12/26 08:09:50;;;;;;;22.80;14.48;;;8.60;99.90;;;;;;5110398;28;20039;-52
2022/12/26 08:12:20;;;;;;;20.80;14.00;;;8.40;99.90;;;;;;5110612;28;20045;-49
2022/12/26 08:14:46;;;;;;;23.15;14.07;;;8.40;99.90;;;;;;5108509;27;20035;-54
2022/12/26 08:17:12;;;;;;;21.42;12.93;;;8.50;99.90;;;;;;5108477;28;20080;-50
2022/12/26 08:19:38;;;;;;;19.23;11.48;;;8.70;99.90;;;;;;5110915;27;20031;-50
2022/12/26 08:22:03;;;;;;;20.00;12.35;;;8.50;99.90;;;;;;5123196;27;20055;-52
2022/12/26 08:24:29;;;;;;;17.52;11.20;;;8.90;99.90;;;;;;5102820;27;20054;-52
2022/12/26 08:26:55;;;;;;;21.17;11.88;;;9.00;99.90;;;;;;5103942;27;20578;-51
2022/12/26 08:29:21;;;;;;;18.33;10.73;;;8.70;99.90;;;;;;5102282;27;20124;-48
2022/12/26 08:31:47;;;;;;;17.00;9.68;;;9.10;99.90;;;;;;5102652;28;20040;-49
2022/12/26 08:34:13;;;;;;;15.75;9.43;;;8.90;99.90;;;;;;5103795;27;20470;-49
2022/12/26 08:36:39;;;;;;;16.98;9.85;;;8.80;99.90;;;;;;5103114;28;20093;-51
2022/12/26 08:39:05;;;;;;;18.70;10.07;;;8.90;99.90;;;;;;5105118;27;20036;-51
2022/12/26 08:41:31;;;;;;;19.17;9.95;;;9.00;99.90;;;;;;5104435;27;20046;-53
2022/12/26 08:43:57;;;;;;;13.95;9.20;;;9.00;99.90;;;;;;5103043;27;20047;-51
2022/12/26 08:46:22;;;;;;;15.63;8.70;;;9.30;99.90;;;;;;5102947;28;20386;-53
2022/12/26 08:48:49;;;;;;;15.82;8.98;;;9.00;99.90;;;;;;5101485;28;20081;-52
2022/12/26 08:51:20;;;;;;;16.45;8.55;;;9.30;99.90;;;;;;5101602;27;20469;-49
2022/12/26 08:53:48;;;;;;;15.38;8.73;;;9.00;99.90;;;;;;5104399;27;20040;-51
2022/12/26 08:56:16;;;;;;;16.98;8.40;;;9.30;99.90;;;;;;5103444;28;20088;-50
2022/12/26 08:58:42;;;;;;;14.13;9.13;;;9.10;99.90;;;;;;5102018;28;20502;-51
2022/12/26 09:01:12;;;;;;;15.63;8.93;;;9.40;99.90;;;;;;5100989;27;20032;-51
2022/12/26 09:03:39;;;;;;;15.55;8.77;;;9.10;99.90;;;;;;5099734;27;20058;-50
2022/12/26 09:06:05;;;;;;;17.20;9.38;;;9.30;99.90;;;;;;5098419;28;20080;-51
2022/12/26 09:08:33;;;;;;;13.90;9.13;;;9.20;99.90;;;;;;5101951;28;20363;-49
2022/12/26 09:11:20;;;;;;;14.38;8.75;;;9.00;99.90;;;;;;5104479;27;20129;-49
2022/12/26 09:13:46;;;;;;;14.32;8.73;;;9.30;99.90;;;;;;5103519;27;20055;-52
2022/12/26 09:16:19;;;;;;;12.75;8.27;;;9.00;99.90;;;;;;5103094;28;20036;-53
2022/12/26 09:18:46;;;;;;;13.07;8.63;;;9.10;99.90;;;;;;5102673;28;20132;-50
2022/12/26 09:21:14;;;;;;;14.88;7.82;;;9.30;99.90;;;;;;5103327;27;20041;-49
2022/12/26 09:23:41;;;;;;;12.10;7.72;;;9.10;99.90;;;;;;5102859;27;20364;-51
2022/12/26 09:26:09;;;;;;;14.32;6.45;;;9.30;99.90;;;;;;5102553;28;20355;-52
2022/12/26 09:28:35;;;;;;;11.07;6.30;;;9.30;99.90;;;;;;5103942;28;20389;-50
2022/12/26 09:31:07;;;;;;;11.73;6.15;;;9.00;99.90;;;;;;5104239;28;20164;-48
2022/12/26 09:33:36;;;;;;;11.02;5.63;;;9.30;99.90;;;;;;5101791;28;20189;-54
2022/12/26 09:36:08;;;;;;;10.52;4.93;;;9.10;99.90;;;;;;5103263;28;20044;-50
2022/12/26 09:38:35;;;;;;;13.15;4.82;;;9.30;99.90;;;;;;5095153;28;20036;-51
2022/12/26 09:41:25;;;;;;;8.00;4.85;;;9.20;99.90;;;;;;5094992;27;20043;-53
2022/12/26 09:44:15;;;;;;;10.82;5.07;;;9.30;99.90;;;;;;5092746;28;20119;-50
2022/12/26 09:47:05;;;;;;;10.57;4.97;;;9.40;99.90;;;;;;5094934;28;20071;-50
2022/12/26 09:49:36;;;;;;;8.90;3.83;;;9.20;99.90;;;;;;5091344;28;20048;-49
2022/12/26 09:52:10;;;;;;;13.65;3.40;;;9.40;99.90;;;;;;5094597;28;20081;-49
2022/12/26 09:54:48;;;;;;;15.95;3.58;;;9.00;99.90;;;;;;5091062;28;20031;-51
2022/12/26 09:57:17;;;;;;;18.42;3.45;;;8.70;99.90;;;;;;5092226;28;20035;-52
2022/12/26 09:59:51;;;;;;;18.85;3.10;;;8.60;99.90;;;;;;5095368;28;20118;-50
2022/12/26 10:02:19;;;;;;;;;;;8.30;99.90;;;;;;5094436;28;20043;-51
2022/12/26 10:04:44;;;;;;;15.30;2.38;;;8.10;99.90;;;;;;5093053;28;19920;-51
2022/12/26 10:07:36;;;;;;;15.70;3.35;;;8.00;99.90;;;;;;5089907;28;20371;-52
2022/12/26 10:10:18;;;;;;;12.20;2.03;;;7.90;99.90;;;;;;5078226;28;20139;-50
2022/12/26 10:13:06;;;;;;;12.05;1.63;;;7.70;99.90;;;;;;5087459;27;20653;-52
2022/12/26 10:15:43;;;;;;;16.15;2.65;;;7.60;99.90;;;;;;5094486;28;20032;-49
2022/12/26 10:18:30;;;;;;;13.77;2.38;;;7.60;99.90;;;;;;5090893;28;20108;-51
2022/12/26 10:21:13;;;;;;;12.80;1.98;;;7.60;99.90;;;;;;5093475;28;20031;-50
2022/12/26 10:23:47;;;;;;;11.10;1.65;;;7.50;99.90;;;;;;5091803;28;20131;-50
2022/12/26 10:26:15;;;;;;;12.88;2.47;;;7.70;99.90;;;;;;5096709;27;20136;-50
2022/12/26 10:28:54;;;;;;;11.93;1.95;;;7.80;99.90;;;;;;5091642;27;20039;-51
2022/12/26 10:31:29;;;;;;;12.00;1.60;;;7.90;99.90;;;;;;5090663;28;20048;-51
2022/12/26 10:34:07;;;;;;;10.38;1.27;;;8.00;99.90;;;;;;5102119;27;20082;-48
2022/12/26 10:36:59;;;;;;;9.68;1.85;;;8.50;99.90;;;;;;5087607;28;20041;-52
2022/12/26 10:39:27;;;;;;;8.13;1.45;;;8.90;99.90;;;;;;5091348;28;20034;-51
2022/12/26 10:41:58;;;;;;;9.00;1.50;;;8.90;99.90;;;;;;5090921;28;20035;-50
2022/12/26 10:44:24;;;;;;;10.75;1.20;;;8.60;99.90;;;;;;5091360;28;20044;-48
2022/12/26 10:47:04;;;;;;;9.77;1.90;;;8.40;99.90;;;;;;5088418;28;20035;-48
2022/12/26 10:49:31;;;;;;;12.52;1.88;;;8.30;99.90;;;;;;5088864;28;20123;-48
2022/12/26 10:51:59;;;;;;;11.80;1.80;;;8.10;99.90;;;;;;5089035;28;20027;-48
2022/12/26 10:54:28;;;;;;;11.23;1.77;;;8.10;99.90;;;;;;5089624;28;20032;-49
2022/12/26 10:56:55;;;;;;;10.13;1.70;;;8.00;99.90;;;;;;5091892;28;20028;-48
2022/12/26 10:59:34;;;;;;;9.85;1.42;;;8.10;99.90;;;;;;5092737;28;20039;-50
2022/12/26 11:02:42;;;;;;;12.07;1.77;;;8.00;99.90;;;;;;5089047;28;20131;-49
2022/12/26 11:05:13;;;;;;;11.23;1.67;;;8.00;99.90;;;;;;5037965;28;20045;-49
2022/12/26 11:07:53;;;;;;;9.43;1.58;;;8.00;99.90;;;;;;5103334;28;20045;-49
2022/12/26 11:10:22;;;;;;;12.10;2.33;;;8.00;99.90;;;;;;5090276;28;20027;-49
2022/12/26 11:12:52;;;;;;;10.27;2.00;;;8.00;99.90;;;;;;5089381;28;20372;-50
2022/12/26 11:15:36;;;;;;;8.57;1.83;;;7.90;99.90;;;;;;5087660;28;20042;-46
2022/12/26 11:18:26;;;;;;;8.27;1.50;;;7.90;99.90;;;;;;5097350;28;20414;-50
2022/12/26 11:20:52;;;;;;;12.65;2.03;;;7.80;99.90;;;;;;5089274;28;20036;-51
2022/12/26 11:23:20;;;;;;;9.00;1.45;;;7.70;99.90;;;;;;5089841;28;20097;-48
2022/12/26 11:25:48;;;;;;;14.80;1.83;;;7.80;99.90;;;;;;5090820;28;20032;-49
2022/12/26 11:28:32;;;;;;;7.50;1.30;;;7.90;99.90;;;;;;5091934;28;20062;-48
2022/12/26 11:31:00;;;;;;;10.90;1.60;;;7.80;99.90;;;;;;5089735;28;20426;-51
2022/12/26 11:33:35;;;;;;;12.75;1.60;;;7.80;99.90;;;;;;5092359;27;20043;-50
2022/12/26 11:36:26;;;;;;;11.15;1.40;;;7.80;99.90;;;;;;5094104;28;20059;-47
2022/12/26 11:39:02;;;;;;;9.90;1.70;;;7.80;99.90;;;;;;5092560;27;20038;-48
2022/12/26 11:41:30;;;;;;;9.38;1.73;;;7.70;99.90;;;;;;5086147;27;20587;-48
2022/12/26 11:44:27;;;;;;;11.27;1.63;;;7.70;99.90;;;;;;5093920;28;20035;-50
2022/12/26 11:46:59;;;;;;;15.75;1.98;;;7.70;99.90;;;;;;5094064;28;20052;-50
2022/12/26 11:49:34;;;;;;;14.02;1.70;;;7.90;99.90;;;;;;5094632;28;20363;-53
2022/12/26 11:52:02;;;;;;;10.77;2.50;;;8.30;99.90;;;;;;5091836;28;20390;-49
2022/12/26 11:54:30;;;;;;;10.93;2.00;;;8.80;99.90;;;;;;5092826;28;20028;-48
2022/12/26 11:57:14;;;;;;;14.57;1.73;;;9.00;99.90;;;;;;5093235;28;20040;-48
2022/12/26 11:59:39;;;;;;;9.07;1.90;;;9.10;99.90;;;;;;5090823;28;20071;-49
2022/12/26 12:02:30;;;;;;;10.77;2.03;;;9.00;99.90;;;;;;5093567;28;20068;-51
2022/12/26 12:05:11;;;;;;;10.75;1.50;;;8.70;99.90;;;;;;5098059;27;20038;-50
2022/12/26 12:07:51;;;;;;;12.48;2.13;;;8.30;99.90;;;;;;5100703;28;20050;-50
2022/12/26 12:10:54;;;;;;;10.25;1.98;;;8.20;99.90;;;;;;5101686;28;20035;-50
2022/12/26 12:13:44;;;;;;;10.93;2.10;;;8.00;99.90;;;;;;5101633;28;20046;-47
2022/12/26 12:16:19;;;;;;;10.23;2.63;;;8.00;99.90;;;;;;5100806;28;20059;-46
2022/12/26 12:19:03;;;;;;;10.95;1.90;;;8.00;99.90;;;;;;5101640;28;20478;-49
2022/12/26 12:21:38;;;;;;;9.00;1.98;;;8.00;99.90;;;;;;5101038;27;20043;-50
2022/12/26 12:24:31;;;;;;;13.13;2.10;;;7.90;99.90;;;;;;5103215;28;20406;-50
2022/12/26 12:27:00;;;;;;;11.63;1.88;;;7.80;99.90;;;;;;5102759;28;20050;-49
2022/12/26 12:29:31;;;;;;;16.40;2.42;;;7.80;99.90;;;;;;5102857;28;20040;-48
2022/12/26 12:32:08;;;;;;;12.10;1.55;;;7.80;99.90;;;;;;5102307;28;20071;-48
2022/12/26 12:34:50;;;;;;;15.45;2.20;;;7.70;99.90;;;;;;5103710;28;20031;-48
2022/12/26 12:37:24;;;;;;;15.90;2.20;;;7.70;99.90;;;;;;5102375;28;20108;-46
2022/12/26 12:40:22;;;;;;;9.25;1.90;;;7.80;99.90;;;;;;5102571;27;20036;-51
2022/12/26 12:43:08;;;;;;;14.25;2.28;;;7.70;99.90;;;;;;5101894;28;20040;-50
2022/12/26 12:45:45;;;;;;;13.65;2.03;;;7.70;99.90;;;;;;5099950;28;20553;-50
2022/12/26 12:48:48;;;;;;;10.63;1.67;;;7.70;99.90;;;;;;5102479;28;20039;-47
2022/12/26 12:51:19;;;;;;;16.60;2.60;;;7.60;99.90;;;;;;5053325;28;20043;-49
2022/12/26 12:54:22;;;;;;;16.20;2.20;;;7.50;99.90;;;;;;5098362;27;20028;-49
2022/12/26 12:56:48;;;;;;;17.45;2.50;;;7.40;99.90;;;;;;5099971;28;20531;-47
2022/12/26 12:59:37;;;;;;;10.35;2.10;;;7.30;99.90;;;;;;5101192;28;20139;-48
2022/12/26 13:02:26;;;;;;;10.30;2.13;;;7.30;99.90;;;;;;5103181;28;20127;-51
2022/12/26 13:05:17;;;;;;;16.67;2.05;;;7.30;99.90;;;;;;5103150;28;20048;-48
2022/12/26 13:07:49;;;;;;;13.55;3.38;;;7.20;99.90;;;;;;5099905;28;20047;-49
2022/12/26 13:10:33;;;;;;;11.63;1.98;;;7.20;99.90;;;;;;5102382;28;20040;-49
2022/12/26 13:13:08;;;;;;;14.98;2.25;;;7.20;99.90;;;;;;5102850;28;20032;-47
2022/12/26 13:15:43;;;;;;;13.70;2.28;;;7.10;99.90;;;;;;5101037;28;20079;-50
2022/12/26 13:18:19;;;;;;;9.45;2.03;;;7.20;99.90;;;;;;5103043;28;20032;-47
2022/12/26 13:20:52;;;;;;;12.77;2.10;;;7.20;99.90;;;;;;5101732;28;20074;-47
2022/12/26 13:26:08;;;;;;;14.23;3.17;;;7.30;99.90;;;;;;5101397;28;20028;-49
2022/12/26 13:28:43;;;;;;;14.90;2.47;;;7.30;99.90;;;;;;5101421;28;20035;-46
2022/12/26 13:31:08;;;;;;;14.57;2.30;;;7.20;99.90;;;;;;5099315;28;20062;-47
2022/12/26 13:33:34;;;;;;;12.13;1.88;;;7.30;99.90;;;;;;5099487;28;20374;-47
2022/12/26 13:36:05;;;;;;;11.45;2.08;;;7.20;99.90;;;;;;5101429;28;20034;-45
2022/12/26 13:38:54;;;;;;;12.27;1.92;;;7.20;99.90;;;;;;5097749;28;20465;-48
2022/12/26 13:44:19;;;;;;;;;;;7.50;99.90;;;;;;5100432;27;20039;-46
2022/12/26 13:46:45;;;;;;;8.38;1.85;;;7.50;99.90;;;;;;5100449;28;19918;-47
2022/12/26 13:49:40;;;;;;;10.80;1.33;;;7.60;99.90;;;;;;5099844;28;20118;-49
2022/12/26 13:52:14;;;;;;;9.30;1.85;;;7.60;99.90;;;;;;5100760;28;20046;-51
2022/12/26 13:54:46;;;;;;;9.20;1.30;;;7.60;99.90;;;;;;5100738;28;20040;-46
2022/12/26 13:57:30;;;;;;;9.57;2.13;;;7.60;99.90;;;;;;5100234;28;20031;-47
2022/12/26 14:00:09;;;;;;;9.32;1.50;;;7.60;99.90;;;;;;5097940;28;20035;-51
2022/12/26 14:03:02;;;;;;;7.32;1.67;;;7.50;99.90;;;;;;5098821;28;20285;-47
2022/12/26 14:05:43;;;;;;;12.68;1.67;;;7.40;99.90;;;;;;5111695;27;20031;-47
2022/12/26 14:08:31;;;;;;;10.70;1.50;;;7.30;99.90;;;;;;5104881;28;20080;-46
2022/12/26 14:11:03;;;;;;;85.20;28.67;;;7.30;99.90;;;;;;5108629;28;20032;-47
2022/12/26 14:13:54;;;;;;;129.82;41.40;;;7.20;99.90;;;;;;5108273;28;20043;-45
2022/12/26 14:16:41;;;;;;;35.83;9.40;;;7.20;99.90;;;;;;5109167;28;20039;-46
2022/12/26 14:19:29;;;;;;;22.05;5.45;;;7.00;99.90;;;;;;5108754;27;20130;-49
2022/12/26 14:22:08;;;;;;;23.05;4.38;;;7.00;99.90;;;;;;5107680;28;20043;-46
2022/12/26 14:24:49;;;;;;;17.05;2.85;;;7.00;99.90;;;;;;5109984;28;20032;-47
2022/12/26 14:27:44;;;;;;;11.77;2.45;;;6.90;99.90;;;;;;5108975;28;20074;-48
2022/12/26 14:30:16;;;;;;;15.10;2.78;;;6.90;99.90;;;;;;5108309;28;20128;-47
2022/12/26 14:32:51;;;;;;;12.98;2.65;;;6.80;99.90;;;;;;5110408;28;20051;-50
2022/12/26 14:35:31;;;;;;;11.10;2.13;;;6.80;99.90;;;;;;5103252;28;20110;-48
2022/12/26 14:38:25;;;;;;;14.82;2.58;;;6.80;99.90;;;;;;5107618;28;20470;-48
2022/12/26 14:41:03;;;;;;;20.92;8.15;;;6.80;99.90;;;;;;5111961;27;20046;-47
2022/12/26 14:43:36;;;;;;;31.58;16.80;;;6.70;99.90;;;;;;5111063;28;20060;-49
2022/12/26 14:46:24;;;;;;;44.30;20.13;;;6.70;99.90;;;;;;5109651;28;20046;-49
2022/12/26 14:48:54;;;;;;;22.80;5.95;;;6.70;99.90;;;;;;5077728;28;20145;-46
2022/12/26 14:51:19;;;;;;;18.52;4.47;;;6.60;99.90;;;;;;5120785;27;20126;-48
2022/12/26 14:54:06;;;;;;;14.43;2.75;;;6.60;99.90;;;;;;5110303;28;20620;-48
2022/12/26 14:56:36;;;;;;;13.23;3.13;;;6.70;99.90;;;;;;5109324;28;20036;-46
2022/12/26 14:59:24;;;;;;;8.90;1.95;;;6.60;99.90;;;;;;5111255;28;20032;-49
2022/12/26 15:02:27;;;;;;;11.27;2.10;;;6.50;99.90;;;;;;5101530;28;20090;-49
2022/12/26 15:05:08;;;;;;;19.48;3.53;;;6.50;99.90;;;;;;5088680;28;20516;-56
2022/12/26 15:08:07;;;;;;;12.65;1.83;;;6.50;99.90;;;;;;5105784;28;20036;-50
2022/12/26 15:10:56;;;;;;;13.15;2.22;;;6.40;99.90;;;;;;5107982;28;20094;-49
2022/12/26 15:13:54;;;;;;;16.88;2.55;;;6.40;99.90;;;;;;5113951;28;20040;-48
2022/12/26 15:16:32;;;;;;;10.65;2.60;;;6.30;99.90;;;;;;5097089;27;20043;-49
2022/12/26 15:19:55;;;;;;;14.95;1.90;;;6.30;99.90;;;;;;5100483;28;20036;-46
2022/12/26 15:22:45;;;;;;;12.88;1.80;;;6.20;99.90;;;;;;5107773;27;20045;-47